sensor_id;sensor_type;location;lat;lon;timestamp;temperature;humidity
62259;DHT22;48241;48.824;10.102;2022-09-12T00:01:38;14.70;98.30
62259;DHT22;48241;48.824;10.102;2022-09-12T00:04:04;14.50;98.10
62259;DHT22;48241;48.824;10.102;2022-09-12T00:06:35;14.60;98.40
62259;DHT22;48241;48.824;10.102;2022-09-12T00:09:04;14.50;98.50
62259;DHT22;48241;48.824;10.102;2022-09-12T00:11:30;14.40;98.60
62259;DHT22;48241;48.824;10.102;2022-09-12T00:13:58;14.50;98.50
62259;DHT22;48241;48.824;10.102;2022-09-12T00:16:26;14.40;98.50
62259;DHT22;48241;48.824;10.102;2022-09-12T00:18:52;14.50;98.40
62259;DHT22;48241;48.824;10.102;2022-09-12T00:21:18;14.50;98.20
62259;DHT22;48241;48.824;10.102;2022-09-12T00:23:45;14.60;97.90
62259;DHT22;48241;48.824;10.102;2022-09-12T00:26:11;14.40;98.40
62259;DHT22;48241;48.824;10.102;2022-09-12T00:28:38;14.40;98.70
62259;DHT22;48241;48.824;10.102;2022-09-12T00:31:13;14.40;98.60
62259;DHT22;48241;48.824;10.102;2022-09-12T00:33:39;14.50;98.30
62259;DHT22;48241;48.824;10.102;2022-09-12T00:36:09;14.50;98.10
62259;DHT22;48241;48.824;10.102;2022-09-12T00:38:35;14.60;97.50
62259;DHT22;48241;48.824;10.102;2022-09-12T00:41:04;14.70;97.00
62259;DHT22;48241;48.824;10.102;2022-09-12T00:43:34;14.60;97.00
62259;DHT22;48241;48.824;10.102;2022-09-12T00:46:09;14.50;97.70
62259;DHT22;48241;48.824;10.102;2022-09-12T00:48:45;14.50;97.90
62259;DHT22;48241;48.824;10.102;2022-09-12T00:51:12;14.60;97.70
62259;DHT22;48241;48.824;10.102;2022-09-12T00:53:40;14.70;97.40
62259;DHT22;48241;48.824;10.102;2022-09-12T00:56:08;14.60;97.30
62259;DHT22;48241;48.824;10.102;2022-09-12T00:58:48;14.70;97.50
62259;DHT22;48241;48.824;10.102;2022-09-12T01:01:14;14.70;97.50
62259;DHT22;48241;48.824;10.102;2022-09-12T01:03:40;14.60;97.60
62259;DHT22;48241;48.824;10.102;2022-09-12T01:06:19;14.60;97.60
62259;DHT22;48241;48.824;10.102;2022-09-12T01:08:47;14.60;97.60
62259;DHT22;48241;48.824;10.102;2022-09-12T01:11:13;14.60;97.20
62259;DHT22;48241;48.824;10.102;2022-09-12T01:13:40;14.70;97.20
62259;DHT22;48241;48.824;10.102;2022-09-12T01:16:07;14.60;97.00
62259;DHT22;48241;48.824;10.102;2022-09-12T01:19:01;14.50;97.30
62259;DHT22;48241;48.824;10.102;2022-09-12T01:21:42;14.50;97.30
62259;DHT22;48241;48.824;10.102;2022-09-12T01:29:51;14.60;96.10
62259;DHT22;48241;48.824;10.102;2022-09-12T01:38:28;14.40;95.70
62259;DHT22;48241;48.824;10.102;2022-09-12T09:32:34;33.50;32.70
62259;DHT22;48241;48.824;10.102;2022-09-12T09:35:15;33.30;33.90
62259;DHT22;48241;48.824;10.102;2022-09-12T09:37:43;34.30;33.90
62259;DHT22;48241;48.824;10.102;2022-09-12T09:40:23;34.60;33.80
62259;DHT22;48241;48.824;10.102;2022-09-12T09:45:41;34.40;33.50
62259;DHT22;48241;48.824;10.102;2022-09-12T09:48:33;34.50;34.10
62259;DHT22;48241;48.824;10.102;2022-09-12T09:51:02;33.30;34.70
62259;DHT22;48241;48.824;10.102;2022-09-12T09:56:26;34.00;33.40
62259;DHT22;48241;48.824;10.102;2022-09-12T09:58:52;34.10;34.70
62259;DHT22;48241;48.824;10.102;2022-09-12T10:01:18;34.30;33.40
62259;DHT22;48241;48.824;10.102;2022-09-12T10:03:54;34.20;34.20
62259;DHT22;48241;48.824;10.102;2022-09-12T10:06:31;33.20;34.10
62259;DHT22;48241;48.824;10.102;2022-09-12T10:09:18;31.70;35.80
62259;DHT22;48241;48.824;10.102;2022-09-12T10:11:44;30.50;36.50
62259;DHT22;48241;48.824;10.102;2022-09-12T10:14:30;29.60;41.50
62259;DHT22;48241;48.824;10.102;2022-09-12T10:16:56;28.90;39.20
62259;DHT22;48241;48.824;10.102;2022-09-12T10:19:38;28.20;43.10
62259;DHT22;48241;48.824;10.102;2022-09-12T10:22:05;27.90;43.90
62259;DHT22;48241;48.824;10.102;2022-09-12T10:24:40;27.60;45.60
62259;DHT22;48241;48.824;10.102;2022-09-12T10:30:13;26.10;46.60
62259;DHT22;48241;48.824;10.102;2022-09-12T10:32:42;26.00;45.20
62259;DHT22;48241;48.824;10.102;2022-09-12T10:35:28;25.80;45.20
62259;DHT22;48241;48.824;10.102;2022-09-12T10:38:04;25.10;47.00
62259;DHT22;48241;48.824;10.102;2022-09-12T10:40:37;24.40;48.90
62259;DHT22;48241;48.824;10.102;2022-09-12T10:43:16;24.20;50.80
62259;DHT22;48241;48.824;10.102;2022-09-12T10:45:42;24.30;50.70
62259;DHT22;48241;48.824;10.102;2022-09-12T10:48:27;24.30;48.70
62259;DHT22;48241;48.824;10.102;2022-09-12T10:50:53;24.00;49.50
62259;DHT22;48241;48.824;10.102;2022-09-12T10:53:31;24.20;50.00
62259;DHT22;48241;48.824;10.102;2022-09-12T10:56:17;24.40;50.30
62259;DHT22;48241;48.824;10.102;2022-09-12T11:09:48;24.00;53.40
62259;DHT22;48241;48.824;10.102;2022-09-12T11:15:02;24.00;48.60
62259;DHT22;48241;48.824;10.102;2022-09-12T11:17:44;24.30;48.80
62259;DHT22;48241;48.824;10.102;2022-09-12T11:20:18;24.30;52.80
62259;DHT22;48241;48.824;10.102;2022-09-12T11:31:41;24.80;46.30
62259;DHT22;48241;48.824;10.102;2022-09-12T11:34:10;24.50;46.00
62259;DHT22;48241;48.824;10.102;2022-09-12T11:37:03;24.70;47.10
62259;DHT22;48241;48.824;10.102;2022-09-12T11:39:38;24.70;47.70
62259;DHT22;48241;48.824;10.102;2022-09-12T11:42:09;25.00;45.00
62259;DHT22;48241;48.824;10.102;2022-09-12T11:44:47;24.50;46.10
62259;DHT22;48241;48.824;10.102;2022-09-12T11:47:16;24.60;47.70
62259;DHT22;48241;48.824;10.102;2022-09-12T11:49:46;24.70;50.50
62259;DHT22;48241;48.824;10.102;2022-09-12T11:52:22;25.00;48.00
62259;DHT22;48241;48.824;10.102;2022-09-12T11:55:11;25.00;46.90
62259;DHT22;48241;48.824;10.102;2022-09-12T12:00:27;25.10;46.10
62259;DHT22;48241;48.824;10.102;2022-09-12T12:03:08;25.20;44.00
62259;DHT22;48241;48.824;10.102;2022-09-12T12:08:27;24.80;43.70
62259;DHT22;48241;48.824;10.102;2022-09-12T12:11:01;24.30;44.10
62259;DHT22;48241;48.824;10.102;2022-09-12T12:13:33;23.80;45.50
62259;DHT22;48241;48.824;10.102;2022-09-12T12:16:11;23.50;47.50
62259;DHT22;48241;48.824;10.102;2022-09-12T12:18:39;23.50;47.90
62259;DHT22;48241;48.824;10.102;2022-09-12T12:24:23;24.20;46.40
62259;DHT22;48241;48.824;10.102;2022-09-12T12:34:42;24.50;45.50
62259;DHT22;48241;48.824;10.102;2022-09-12T12:53:04;24.80;44.00
62259;DHT22;48241;48.824;10.102;2022-09-12T12:58:01;24.50;41.80
62259;DHT22;48241;48.824;10.102;2022-09-12T13:00:35;24.60;49.90
62259;DHT22;48241;48.824;10.102;2022-09-12T13:03:16;24.60;47.60
62259;DHT22;48241;48.824;10.102;2022-09-12T13:05:51;24.60;45.50
62259;DHT22;48241;48.824;10.102;2022-09-12T13:08:25;24.70;44.00
62259;DHT22;48241;48.824;10.102;2022-09-12T13:15:55;24.30;43.60
62259;DHT22;48241;48.824;10.102;2022-09-12T13:18:32;24.30;44.10
62259;DHT22;48241;48.824;10.102;2022-09-12T13:21:11;24.40;45.10
62259;DHT22;48241;48.824;10.102;2022-09-12T13:23:37;24.60;47.50
62259;DHT22;48241;48.824;10.102;2022-09-12T13:26:08;24.70;43.40
62259;DHT22;48241;48.824;10.102;2022-09-12T13:28:35;24.70;44.20
62259;DHT22;48241;48.824;10.102;2022-09-12T13:31:02;24.80;43.00
62259;DHT22;48241;48.824;10.102;2022-09-12T13:33:39;25.00;40.30
62259;DHT22;48241;48.824;10.102;2022-09-12T13:44:46;25.10;41.30
62259;DHT22;48241;48.824;10.102;2022-09-12T13:47:15;25.30;37.60
62259;DHT22;48241;48.824;10.102;2022-09-12T13:49:43;25.30;46.50
62259;DHT22;48241;48.824;10.102;2022-09-12T13:52:25;25.30;48.40
62259;DHT22;48241;48.824;10.102;2022-09-12T13:54:55;25.30;48.30
62259;DHT22;48241;48.824;10.102;2022-09-12T13:59:56;25.10;38.70
62259;DHT22;48241;48.824;10.102;2022-09-12T14:02:24;24.90;47.90
62259;DHT22;48241;48.824;10.102;2022-09-12T14:04:51;24.70;46.90
62259;DHT22;48241;48.824;10.102;2022-09-12T14:10:34;24.70;44.40
62259;DHT22;48241;48.824;10.102;2022-09-12T14:13:04;24.30;49.40
62259;DHT22;48241;48.824;10.102;2022-09-12T14:15:36;23.90;45.90
62259;DHT22;48241;48.824;10.102;2022-09-12T14:18:04;24.20;53.80
62259;DHT22;48241;48.824;10.102;2022-09-12T14:20:35;24.10;50.40
62259;DHT22;48241;48.824;10.102;2022-09-12T14:23:04;24.10;55.20
62259;DHT22;48241;48.824;10.102;2022-09-12T14:25:34;24.00;52.60
62259;DHT22;48241;48.824;10.102;2022-09-12T14:28:02;23.80;51.00
62259;DHT22;48241;48.824;10.102;2022-09-12T14:30:30;23.90;52.30
62259;DHT22;48241;48.824;10.102;2022-09-12T14:33:05;23.80;56.60
62259;DHT22;48241;48.824;10.102;2022-09-12T14:35:43;24.10;49.70
62259;DHT22;48241;48.824;10.102;2022-09-12T14:40:52;23.90;53.10
62259;DHT22;48241;48.824;10.102;2022-09-12T14:43:27;23.80;55.60
62259;DHT22;48241;48.824;10.102;2022-09-12T14:45:56;23.90;58.30
62259;DHT22;48241;48.824;10.102;2022-09-12T14:48:25;24.00;48.30
62259;DHT22;48241;48.824;10.102;2022-09-12T14:50:52;23.60;57.90
62259;DHT22;48241;48.824;10.102;2022-09-12T14:56:10;23.40;59.80
62259;DHT22;48241;48.824;10.102;2022-09-12T14:58:36;23.40;53.20
62259;DHT22;48241;48.824;10.102;2022-09-12T15:01:22;23.40;54.40
62259;DHT22;48241;48.824;10.102;2022-09-12T15:03:50;23.30;51.30
62259;DHT22;48241;48.824;10.102;2022-09-12T15:06:28;23.20;58.70
62259;DHT22;48241;48.824;10.102;2022-09-12T15:08:58;23.10;60.10
62259;DHT22;48241;48.824;10.102;2022-09-12T15:11:24;23.20;52.60
62259;DHT22;48241;48.824;10.102;2022-09-12T15:13:50;23.10;56.80
62259;DHT22;48241;48.824;10.102;2022-09-12T15:16:16;23.00;58.10
62259;DHT22;48241;48.824;10.102;2022-09-12T15:18:42;22.90;50.90
62259;DHT22;48241;48.824;10.102;2022-09-12T15:21:11;22.70;60.50
62259;DHT22;48241;48.824;10.102;2022-09-12T15:26:13;22.70;61.50
62259;DHT22;48241;48.824;10.102;2022-09-12T15:28:39;22.70;62.60
62259;DHT22;48241;48.824;10.102;2022-09-12T15:31:26;22.30;64.90
62259;DHT22;48241;48.824;10.102;2022-09-12T15:33:53;22.30;65.70
62259;DHT22;48241;48.824;10.102;2022-09-12T16:22:59;20.60;75.20
